Time;durP1;ratioP1;P1;durP2;ratioP2;P2;SDS_P1;SDS_P2;PMS_P1;PMS_P2;Temp;Humidity;BMP_temperature;BMP_pressure;BME280_temperature;BME280_humidity;BME280_pressure;Samples;Min_cycle;Max_cycle;Signal;HPM_P1;HPM_P2
2022/08/10 00:01:33;;;;;;;2.85;2.65;;;17.40;90.20;;;;;;4951876;29;20067;-79
2022/08/10 00:03:59;;;;;;;2.72;2.53;;;17.30;90.30;;;;;;4953097;29;20058;-79
2022/08/10 00:06:25;;;;;;;2.75;2.55;;;17.20;90.50;;;;;;4952514;28;20047;-78
2022/08/10 00:08:51;;;;;;;2.70;2.50;;;17.20;90.90;;;;;;4949155;28;20063;-78
2022/08/10 00:11:17;;;;;;;3.58;3.28;;;17.10;90.70;;;;;;4951374;29;20038;-78
2022/08/10 00:13:43;;;;;;;2.63;2.42;;;17.10;91.10;;;;;;4930972;29;20494;-78
2022/08/10 00:16:09;;;;;;;3.08;2.70;;;17.00;91.50;;;;;;4948537;29;20027;-79
2022/08/10 00:18:35;;;;;;;5.30;2.80;;;16.90;92.00;;;;;;4952033;29;20039;-79
2022/08/10 00:21:01;;;;;;;3.50;2.85;;;16.90;92.20;;;;;;4950232;29;20379;-78
2022/08/10 00:23:27;;;;;;;2.60;2.40;;;16.90;92.20;;;;;;4950561;29;20034;-79
2022/08/10 00:25:53;;;;;;;3.13;2.92;;;16.90;91.40;;;;;;4949688;28;20475;-79
2022/08/10 00:28:18;;;;;;;2.97;2.67;;;17.00;91.10;;;;;;4950292;29;20049;-79
2022/08/10 00:30:44;;;;;;;3.08;2.88;;;17.00;91.10;;;;;;4952068;29;20118;-80
2022/08/10 00:33:10;;;;;;;3.47;3.00;;;17.00;91.30;;;;;;4950916;29;20114;-78
2022/08/10 00:35:36;;;;;;;3.20;2.90;;;16.90;91.80;;;;;;4949798;29;20043;-79
2022/08/10 00:38:01;;;;;;;3.42;2.55;;;16.80;92.10;;;;;;4949191;28;20042;-79
2022/08/10 00:40:27;;;;;;;3.38;3.08;;;16.90;92.20;;;;;;4949150;29;20090;-79
2022/08/10 00:42:52;;;;;;;3.20;2.90;;;16.90;91.70;;;;;;4949602;29;20509;-80
2022/08/10 00:45:18;;;;;;;3.30;3.00;;;16.90;91.00;;;;;;4949952;29;20043;-79
2022/08/10 00:47:44;;;;;;;3.17;2.97;;;16.80;91.00;;;;;;4950807;29;20098;-79
2022/08/10 00:50:09;;;;;;;3.13;2.92;;;16.70;91.30;;;;;;4949470;28;20706;-79
2022/08/10 00:52:36;;;;;;;3.70;3.00;;;16.60;91.20;;;;;;4948202;28;20466;-78
2022/08/10 00:55:04;;;;;;;3.53;3.08;;;16.50;91.60;;;;;;4949160;29;20478;-79
2022/08/10 00:57:31;;;;;;;3.33;3.00;;;16.40;92.10;;;;;;4948691;28;20039;-79
2022/08/10 00:59:57;;;;;;;2.90;2.70;;;16.40;92.90;;;;;;4950022;29;20046;-79
2022/08/10 01:02:22;;;;;;;4.43;3.00;;;16.40;93.00;;;;;;4933704;29;20039;-77
2022/08/10 01:04:48;;;;;;;3.58;3.25;;;16.40;93.20;;;;;;4951956;29;20032;-77
2022/08/10 01:07:41;;;;;;;3.10;2.90;;;16.40;93.90;;;;;;5019800;23;20076;-77
2022/08/10 01:10:34;;;;;;;4.88;3.17;;;16.30;94.50;;;;;;4892738;29;20051;-77
2022/08/10 01:13:09;;;;;;;3.60;3.25;;;16.20;94.70;;;;;;4905733;29;20029;-78
2022/08/10 01:15:46;;;;;;;3.92;3.20;;;16.20;95.20;;;;;;4907680;29;20689;-78
2022/08/10 01:18:20;;;;;;;4.20;3.40;;;16.10;95.10;;;;;;4907569;29;20071;-78
2022/08/10 01:21:10;;;;;;;3.72;3.42;;;16.10;94.90;;;;;;4908054;29;20537;-79
2022/08/10 01:23:47;;;;;;;3.45;3.15;;;16.10;94.90;;;;;;4910243;29;20040;-78
2022/08/10 01:26:31;;;;;;;3.75;3.30;;;16.10;95.00;;;;;;4908127;29;20383;-78
2022/08/10 01:29:32;;;;;;;3.88;3.20;;;16.10;94.10;;;;;;4907632;29;20040;-78
2022/08/10 01:32:04;;;;;;;4.05;3.20;;;16.10;94.50;;;;;;4834534;29;20082;-78
2022/08/10 01:34:49;;;;;;;3.15;2.95;;;16.10;95.20;;;;;;4895636;29;20049;-78
2022/08/10 01:37:19;;;;;;;4.38;3.03;;;16.00;95.40;;;;;;4908141;29;20059;-77
2022/08/10 01:39:49;;;;;;;4.28;3.30;;;16.10;95.80;;;;;;4908325;29;20122;-77
2022/08/10 01:42:18;;;;;;;5.90;3.25;;;16.10;94.50;;;;;;4908064;29;20040;-77
2022/08/10 01:45:05;;;;;;;4.13;3.17;;;16.00;93.30;;;;;;4908005;29;20131;-77
2022/08/10 01:50:25;;;;;;;4.10;3.60;;;15.80;94.40;;;;;;4902856;29;20044;-78
2022/08/10 01:52:59;;;;;;;6.93;3.97;;;15.80;95.10;;;;;;4908452;29;20099;-77
2022/08/10 01:55:26;;;;;;;5.82;3.70;;;15.80;95.50;;;;;;4910634;29;20036;-77
2022/08/10 01:57:53;;;;;;;3.35;3.15;;;15.80;96.10;;;;;;4908416;29;20034;-78
2022/08/10 02:00:19;;;;;;;4.45;3.05;;;15.80;95.80;;;;;;4910091;29;20127;-78
2022/08/10 02:02:46;;;;;;;4.00;3.60;;;15.80;95.60;;;;;;4906273;29;21532;-77
2022/08/10 02:05:14;;;;;;;4.68;4.05;;;15.70;96.90;;;;;;4908834;29;20047;-78
2022/08/10 02:07:41;;;;;;;3.90;3.50;;;15.60;97.30;;;;;;4908572;29;20063;-78
2022/08/10 02:10:13;;;;;;;5.13;3.83;;;15.50;97.70;;;;;;4910054;29;20056;-77
2022/08/10 02:12:42;;;;;;;3.92;3.50;;;15.50;97.70;;;;;;4913841;29;20032;-77
2022/08/10 02:15:13;;;;;;;3.60;3.30;;;15.50;97.50;;;;;;4912240;29;20048;-78
2022/08/10 02:17:44;;;;;;;6.70;3.55;;;15.50;97.70;;;;;;4914230;29;20043;-77
2022/08/10 02:20:19;;;;;;;3.83;3.53;;;15.60;96.80;;;;;;4911102;29;20402;-77
2022/08/10 02:22:50;;;;;;;3.10;2.80;;;15.60;96.90;;;;;;4912264;29;20036;-77
2022/08/10 02:25:19;;;;;;;4.13;3.78;;;15.50;95.10;;;;;;4909862;29;20055;-78
2022/08/10 02:27:48;;;;;;;3.20;3.00;;;15.30;94.80;;;;;;4912031;29;20055;-77
2022/08/10 02:30:13;;;;;;;3.50;3.30;;;15.00;96.20;;;;;;4911124;29;20063;-77
2022/08/10 02:32:40;;;;;;;4.97;3.42;;;15.00;96.80;;;;;;4912365;29;20181;-77
2022/08/10 02:35:10;;;;;;;3.50;3.30;;;15.10;97.30;;;;;;4911278;29;20031;-78
2022/08/10 02:37:40;;;;;;;4.68;4.00;;;15.10;97.80;;;;;;4911659;29;20032;-78
2022/08/10 02:40:07;;;;;;;3.60;3.30;;;15.10;98.60;;;;;;4911757;29;20020;-77
2022/08/10 02:42:49;;;;;;;4.30;3.60;;;15.10;98.20;;;;;;4910955;29;20040;-77
2022/08/10 02:45:22;;;;;;;5.43;3.70;;;15.10;98.60;;;;;;4910975;29;20099;-77
2022/08/10 02:47:57;;;;;;;4.57;3.20;;;15.20;98.20;;;;;;4910381;29;22010;-78
2022/08/10 02:50:32;;;;;;;4.90;3.45;;;15.20;98.20;;;;;;4908090;29;20032;-78
2022/08/10 02:53:22;;;;;;;3.28;2.90;;;15.20;96.40;;;;;;4909031;29;20035;-78
2022/08/10 02:55:58;;;;;;;4.30;3.25;;;15.00;95.60;;;;;;4909593;29;20043;-78
2022/08/10 02:58:33;;;;;;;3.67;3.38;;;14.90;97.40;;;;;;4909861;29;20092;-77
2022/08/10 03:01:03;;;;;;;3.83;3.53;;;14.90;98.60;;;;;;4909260;29;20040;-75
2022/08/10 03:03:41;;;;;;;4.00;3.70;;;14.80;99.10;;;;;;4910489;29;20505;-77
2022/08/10 03:06:11;;;;;;;3.83;3.50;;;14.80;99.30;;;;;;4909899;29;20056;-79
2022/08/10 03:08:42;;;;;;;3.75;3.45;;;14.80;99.90;;;;;;4899271;29;20044;-77
2022/08/10 03:11:15;;;;;;;3.95;3.53;;;14.80;99.10;;;;;;4906954;29;20149;-76
2022/08/10 03:13:41;;;;;;;4.20;3.80;;;14.80;99.70;;;;;;4895210;29;20036;-78
2022/08/10 03:16:08;;;;;;;4.45;3.63;;;14.80;99.70;;;;;;4893426;29;20028;-77
2022/08/10 03:18:35;;;;;;;4.30;3.90;;;14.80;99.40;;;;;;4899110;29;20032;-77
2022/08/10 03:21:01;;;;;;;4.32;3.90;;;14.80;99.40;;;;;;4899659;29;20040;-77
2022/08/10 03:23:27;;;;;;;4.80;3.85;;;14.80;99.70;;;;;;4895000;29;20031;-78
2022/08/10 03:25:56;;;;;;;4.10;3.70;;;14.80;99.70;;;;;;4895980;29;20036;-77
2022/08/10 03:28:24;;;;;;;3.65;3.35;;;14.90;99.20;;;;;;4896117;29;20032;-78
2022/08/10 03:30:51;;;;;;;3.58;3.30;;;14.90;98.10;;;;;;4892934;29;20188;-78
2022/08/10 03:33:20;;;;;;;3.55;3.08;;;14.70;97.10;;;;;;4893549;29;20032;-78
2022/08/10 03:35:46;;;;;;;3.90;3.28;;;14.70;97.00;;;;;;4897495;29;20036;-79
2022/08/10 03:38:11;;;;;;;3.70;3.40;;;14.70;97.20;;;;;;4892982;29;20049;-77
2022/08/10 03:40:39;;;;;;;3.90;3.60;;;14.70;97.70;;;;;;4890603;29;20037;-77
2022/08/10 03:43:06;;;;;;;4.03;3.65;;;14.60;98.50;;;;;;4893959;29;20151;-77
2022/08/10 03:45:33;;;;;;;4.35;3.97;;;14.50;98.80;;;;;;4897154;29;20384;-78
2022/08/10 03:48:00;;;;;;;4.28;3.88;;;14.20;99.90;;;;;;4899669;29;20095;-77
2022/08/10 03:50:27;;;;;;;4.82;3.55;;;14.10;99.90;;;;;;4895027;29;20032;-77
2022/08/10 03:52:54;;;;;;;4.38;3.97;;;14.00;99.90;;;;;;4896665;29;20043;-77
2022/08/10 03:55:21;;;;;;;4.60;3.83;;;14.10;99.90;;;;;;4893633;29;20064;-77
2022/08/10 03:57:47;;;;;;;4.10;3.70;;;14.10;99.90;;;;;;4893676;29;20028;-77
2022/08/10 04:00:17;;;;;;;6.90;3.85;;;14.20;99.90;;;;;;4898043;29;20091;-78
2022/08/10 04:02:45;;;;;;;5.25;3.92;;;14.10;99.90;;;;;;4898811;29;20052;-77
2022/08/10 04:05:16;;;;;;;4.32;4.03;;;14.00;99.90;;;;;;4898688;29;20040;-77
2022/08/10 04:07:43;;;;;;;4.28;3.97;;;14.00;99.90;;;;;;4896559;29;20056;-77
2022/08/10 04:10:09;;;;;;;4.75;4.35;;;13.90;99.90;;;;;;4896639;29;20209;-78
2022/08/10 04:12:35;;;;;;;5.88;4.63;;;13.90;99.90;;;;;;4895464;29;20357;-77
2022/08/10 04:15:00;;;;;;;5.80;4.40;;;13.80;99.90;;;;;;4893749;29;20073;-78
2022/08/10 04:17:26;;;;;;;7.13;4.00;;;13.70;99.90;;;;;;4908337;29;20055;-77
2022/08/10 04:19:55;;;;;;;5.38;3.55;;;13.80;99.90;;;;;;4893659;29;20048;-78
2022/08/10 04:22:24;;;;;;;5.18;4.68;;;13.90;99.90;;;;;;4894829;29;20028;-78
2022/08/10 04:24:55;;;;;;;4.32;4.00;;;13.80;99.90;;;;;;4894430;29;20395;-77
2022/08/10 04:27:21;;;;;;;5.60;4.13;;;13.90;99.90;;;;;;4895597;29;20028;-77
2022/08/10 04:29:50;;;;;;;4.05;3.67;;;13.90;99.90;;;;;;4890760;29;20044;-77
2022/08/10 04:32:18;;;;;;;4.57;4.18;;;13.90;99.90;;;;;;4892791;29;20041;-78
2022/08/10 04:34:45;;;;;;;5.18;4.57;;;14.00;99.90;;;;;;4894798;29;20055;-77
2022/08/10 04:37:12;;;;;;;4.10;3.70;;;14.10;99.90;;;;;;4897662;29;20041;-79
2022/08/10 04:39:38;;;;;;;3.92;3.63;;;14.10;99.90;;;;;;4895032;29;20089;-77
2022/08/10 04:42:05;;;;;;;4.30;3.95;;;14.10;99.90;;;;;;4895166;29;20372;-78
2022/08/10 04:44:31;;;;;;;4.03;3.72;;;14.00;99.90;;;;;;4895231;29;20040;-78
2022/08/10 04:46:57;;;;;;;4.55;4.15;;;13.80;99.90;;;;;;4894966;29;20032;-78
2022/08/10 04:49:23;;;;;;;5.75;4.13;;;13.80;99.90;;;;;;4894860;29;20031;-78
2022/08/10 04:51:48;;;;;;;5.35;4.85;;;13.70;99.90;;;;;;4892919;29;20050;-78
2022/08/10 04:54:14;;;;;;;5.57;4.47;;;13.80;99.90;;;;;;4897176;29;20037;-77
2022/08/10 04:56:40;;;;;;;5.05;4.57;;;14.00;99.90;;;;;;4895756;29;20120;-77
2022/08/10 04:59:08;;;;;;;5.20;4.45;;;14.10;99.90;;;;;;4893287;29;20087;-77
2022/08/10 05:01:35;;;;;;;4.63;4.22;;;14.20;99.90;;;;;;4891363;29;20068;-77
2022/08/10 05:04:01;;;;;;;4.18;3.88;;;14.30;99.90;;;;;;4892921;29;20032;-77
2022/08/10 05:06:27;;;;;;;4.38;3.97;;;14.40;99.90;;;;;;4895049;29;20059;-78
2022/08/10 05:08:52;;;;;;;4.57;4.18;;;14.40;99.90;;;;;;4893774;29;20382;-78
2022/08/10 05:11:18;;;;;;;5.88;4.50;;;14.50;99.90;;;;;;4894541;29;20148;-77
2022/08/10 05:13:43;;;;;;;8.32;4.40;;;14.60;99.90;;;;;;4895196;29;20036;-78
2022/08/10 05:16:09;;;;;;;5.57;4.63;;;14.60;99.90;;;;;;4895692;29;20702;-78
2022/08/10 05:18:35;;;;;;;4.95;4.35;;;14.50;99.90;;;;;;4891685;29;20045;-78
2022/08/10 05:21:01;;;;;;;6.60;4.60;;;14.50;99.90;;;;;;4905706;29;20039;-77
2022/08/10 05:23:26;;;;;;;5.70;4.47;;;14.60;99.90;;;;;;4888545;29;20063;-78
2022/08/10 05:25:52;;;;;;;6.32;4.70;;;14.60;99.90;;;;;;4895270;29;20100;-77
2022/08/10 05:28:17;;;;;;;5.28;4.20;;;14.70;99.90;;;;;;4889122;29;20166;-79
2022/08/10 05:30:43;;;;;;;4.93;4.53;;;14.80;99.90;;;;;;4891009;29;20160;-79
2022/08/10 05:33:09;;;;;;;6.65;4.70;;;14.90;99.90;;;;;;4890234;29;20173;-78
2022/08/10 05:35:35;;;;;;;4.60;4.15;;;15.10;99.90;;;;;;4891830;29;20136;-78
2022/08/10 05:38:02;;;;;;;5.53;4.90;;;15.20;99.90;;;;;;4888823;29;20048;-78
2022/08/10 05:40:29;;;;;;;5.10;4.30;;;15.40;99.90;;;;;;4889641;29;20045;-78
2022/08/10 05:42:54;;;;;;;4.57;4.18;;;15.50;99.90;;;;;;4891160;29;20076;-78
2022/08/10 05:45:24;;;;;;;4.40;3.95;;;15.60;99.90;;;;;;4890878;29;20332;-78
2022/08/10 05:47:50;;;;;;;4.57;4.13;;;15.80;99.90;;;;;;4885264;29;20056;-78
2022/08/10 05:50:18;;;;;;;4.15;3.85;;;16.00;99.90;;;;;;4895222;29;21382;-78
2022/08/10 05:52:43;;;;;;;4.75;4.28;;;16.20;99.90;;;;;;4896085;29;20021;-77
2022/08/10 05:55:11;;;;;;;4.63;3.67;;;16.30;99.90;;;;;;4888175;29;20056;-78
2022/08/10 05:57:36;;;;;;;3.70;3.38;;;16.50;99.90;;;;;;4894239;29;20039;-78
2022/08/10 06:00:07;;;;;;;5.85;3.40;;;16.70;99.90;;;;;;4890155;29;20445;-78
2022/08/10 06:02:39;;;;;;;5.10;3.40;;;16.90;99.90;;;;;;4895981;29;20045;-79
2022/08/10 06:05:04;;;;;;;2.80;2.70;;;17.20;96.50;;;;;;4885646;29;20036;-78
2022/08/10 06:07:30;;;;;;;3.70;3.05;;;17.50;95.50;;;;;;4898211;29;20139;-78
2022/08/10 06:09:57;;;;;;;7.00;2.80;;;17.60;95.50;;;;;;4897879;29;20040;-78
2022/08/10 06:12:28;;;;;;;3.13;2.50;;;17.80;92.40;;;;;;4896127;29;20044;-79
2022/08/10 06:14:59;;;;;;;5.18;2.65;;;17.90;91.70;;;;;;4897640;29;20077;-78
2022/08/10 06:17:27;;;;;;;3.25;2.70;;;18.00;90.90;;;;;;4897548;29;20041;-78
2022/08/10 06:19:53;;;;;;;2.90;2.65;;;18.10;86.90;;;;;;4898532;29;20041;-79
2022/08/10 06:22:19;;;;;;;2.95;2.20;;;18.20;85.40;;;;;;4902621;29;20105;-78
2022/08/10 06:24:45;;;;;;;4.95;2.70;;;18.30;84.40;;;;;;4895542;29;20048;-79
2022/08/10 06:27:12;;;;;;;3.88;2.50;;;18.40;89.10;;;;;;4900028;29;20060;-78
2022/08/10 06:29:40;;;;;;;4.32;2.88;;;18.50;83.80;;;;;;4899231;29;20047;-78
2022/08/10 06:32:10;;;;;;;2.38;2.17;;;18.70;82.10;;;;;;4899654;29;20057;-79
2022/08/10 06:34:42;;;;;;;3.15;2.63;;;18.80;83.30;;;;;;4897916;29;20044;-79
2022/08/10 06:37:09;;;;;;;3.92;2.58;;;18.90;82.10;;;;;;4891946;29;20035;-79
2022/08/10 06:39:35;;;;;;;4.93;2.35;;;19.00;79.30;;;;;;4895857;29;20036;-78
2022/08/10 06:42:10;;;;;;;3.05;2.22;;;19.10;80.40;;;;;;4896305;29;20394;-79
2022/08/10 06:45:05;;;;;;;5.00;2.47;;;19.30;78.30;;;;;;4905405;29;20037;-78
2022/08/10 06:47:58;;;;;;;2.58;2.38;;;19.40;82.60;;;;;;4892848;29;20033;-78
2022/08/10 06:50:35;;;;;;;2.88;2.10;;;19.60;80.80;;;;;;4895328;29;20032;-78
2022/08/10 06:53:02;;;;;;;7.00;2.50;;;19.70;78.90;;;;;;4903395;29;20036;-78
2022/08/10 06:55:30;;;;;;;3.53;2.25;;;19.80;73.10;;;;;;4896607;29;20721;-78
2022/08/10 06:57:57;;;;;;;3.60;2.40;;;20.00;74.00;;;;;;4896994;29;20040;-77
2022/08/10 07:00:28;;;;;;;2.42;2.10;;;20.00;75.30;;;;;;4895872;29;20044;-79
2022/08/10 07:03:02;;;;;;;3.50;2.42;;;20.00;72.00;;;;;;4896853;29;20092;-78
2022/08/10 07:05:29;;;;;;;3.13;2.08;;;20.10;74.30;;;;;;4897683;29;20068;-77
2022/08/10 07:07:59;;;;;;;2.92;2.13;;;20.20;70.20;;;;;;4894545;29;20060;-78
2022/08/10 07:10:25;;;;;;;3.53;1.90;;;20.30;68.10;;;;;;4899196;29;20070;-79
2022/08/10 07:12:55;;;;;;;6.00;2.05;;;20.30;68.10;;;;;;4897072;29;20546;-78
2022/08/10 07:15:22;;;;;;;3.00;2.00;;;20.50;68.80;;;;;;4899261;29;20392;-78
2022/08/10 07:17:50;;;;;;;4.38;2.20;;;20.60;66.10;;;;;;4895073;29;20101;-78
2022/08/10 07:20:18;;;;;;;2.45;2.00;;;20.60;67.70;;;;;;4893544;29;20096;-78
2022/08/10 07:22:46;;;;;;;;;;;20.70;66.90;;;;;;4894809;29;20052;-78
2022/08/10 07:25:15;;;;;;;4.32;2.33;;;20.90;64.60;;;;;;4895134;29;19916;-77
2022/08/10 07:27:42;;;;;;;2.75;2.00;;;20.90;63.50;;;;;;4892884;29;20116;-78
2022/08/10 07:30:08;;;;;;;2.70;2.20;;;20.90;63.70;;;;;;4898596;29;20174;-76
2022/08/10 07:32:36;;;;;;;3.85;3.50;;;21.10;62.30;;;;;;4895003;29;20456;-78
2022/08/10 07:35:03;;;;;;;4.40;2.22;;;21.10;63.60;;;;;;4887783;29;20035;-78
2022/08/10 07:37:33;;;;;;;4.65;2.03;;;21.00;62.70;;;;;;4895231;29;20388;-78
2022/08/10 07:40:01;;;;;;;5.53;2.13;;;21.20;67.80;;;;;;4893967;29;20045;-78
2022/08/10 07:42:28;;;;;;;4.15;2.03;;;21.30;69.90;;;;;;4892972;29;20037;-77
2022/08/10 07:44:54;;;;;;;2.33;2.05;;;21.30;67.30;;;;;;4891757;29;20092;-78
2022/08/10 07:47:30;;;;;;;2.10;2.00;;;21.30;64.60;;;;;;4893094;29;20037;-78
2022/08/10 07:50:00;;;;;;;2.17;1.95;;;21.30;62.10;;;;;;4896841;29;20055;-78
2022/08/10 07:52:28;;;;;;;5.10;2.25;;;21.40;59.90;;;;;;4893628;29;20037;-78
2022/08/10 07:54:55;;;;;;;2.30;2.10;;;21.40;59.10;;;;;;4894388;29;20119;-78
2022/08/10 07:57:28;;;;;;;4.67;1.83;;;21.50;59.10;;;;;;4896210;29;20192;-78
2022/08/10 08:00:01;;;;;;;2.10;1.90;;;21.60;59.40;;;;;;4893756;29;20469;-79
2022/08/10 08:02:29;;;;;;;1.90;1.80;;;21.70;60.40;;;;;;4893778;29;20052;-78
2022/08/10 08:05:01;;;;;;;2.22;2.10;;;21.80;58.50;;;;;;4895918;29;20400;-79
2022/08/10 08:07:27;;;;;;;3.70;2.20;;;22.00;57.10;;;;;;4895737;29;20045;-78
2022/08/10 08:09:55;;;;;;;4.95;2.85;;;22.20;57.90;;;;;;4897044;29;20093;-80
2022/08/10 08:12:22;;;;;;;2.35;2.15;;;22.10;55.10;;;;;;4897783;29;20029;-78
2022/08/10 08:14:51;;;;;;;2.13;1.73;;;22.10;55.90;;;;;;4909042;29;20040;-78
2022/08/10 08:17:18;;;;;;;2.10;1.90;;;22.20;56.60;;;;;;4897250;29;20036;-78
2022/08/10 08:19:49;;;;;;;3.55;1.90;;;22.40;56.20;;;;;;4895761;29;20033;-78
2022/08/10 08:22:17;;;;;;;2.60;1.90;;;22.60;53.90;;;;;;4894666;29;20036;-78
2022/08/10 08:24:43;;;;;;;2.30;2.10;;;22.60;56.20;;;;;;4893019;29;20135;-78
2022/08/10 08:27:14;;;;;;;5.68;1.90;;;22.80;56.40;;;;;;4893832;29;20032;-78
2022/08/10 08:29:43;;;;;;;3.28;1.85;;;22.60;52.90;;;;;;4895169;29;20036;-78
2022/08/10 08:32:10;;;;;;;2.95;2.13;;;22.50;54.80;;;;;;4895511;29;20476;-78
2022/08/10 08:34:39;;;;;;;2.33;1.85;;;22.50;53.00;;;;;;4898743;29;20104;-78
2022/08/10 08:37:07;;;;;;;5.10;1.88;;;22.70;55.70;;;;;;4896678;29;20042;-78
2022/08/10 08:39:35;;;;;;;2.20;1.90;;;22.90;53.60;;;;;;4895594;29;20076;-78
2022/08/10 08:42:19;;;;;;;;;;;22.90;52.80;;;;;;4896751;29;20044;-78
2022/08/10 08:44:59;;;;;;;5.10;1.98;;;22.90;51.20;;;;;;4894690;29;19926;-78
2022/08/10 08:47:55;;;;;;;2.53;1.90;;;22.70;49.90;;;;;;4894791;29;20036;-78
2022/08/10 08:50:35;;;;;;;4.00;1.83;;;22.80;50.00;;;;;;4891960;29;20475;-78
2022/08/10 08:53:38;;;;;;;2.08;1.80;;;23.00;49.60;;;;;;4893930;29;20046;-79
2022/08/10 08:56:13;;;;;;;3.58;2.00;;;23.00;53.60;;;;;;4897626;29;20440;-78
2022/08/10 08:59:03;;;;;;;1.73;1.58;;;23.20;49.70;;;;;;4898578;29;20028;-78
2022/08/10 09:02:17;;;;;;;2.05;1.80;;;23.10;50.30;;;;;;4896410;29;20045;-78
2022/08/10 09:05:24;;;;;;;1.92;1.80;;;23.10;49.30;;;;;;4879422;29;20044;-78
2022/08/10 09:08:10;;;;;;;2.05;1.88;;;23.20;52.20;;;;;;4902919;29;20507;-78
2022/08/10 09:10:57;;;;;;;1.90;1.80;;;23.50;50.10;;;;;;4914369;29;20040;-79
2022/08/10 09:14:05;;;;;;;3.13;1.90;;;23.50;50.10;;;;;;4913233;29;20183;-78
2022/08/10 09:16:43;;;;;;;3.28;1.85;;;23.60;50.40;;;;;;4883307;29;20511;-78
2022/08/10 09:19:43;;;;;;;2.45;1.80;;;23.50;49.50;;;;;;4914344;29;20075;-78
2022/08/10 09:22:37;;;;;;;3.58;1.77;;;23.60;47.90;;;;;;4913225;29;20067;-78
2022/08/10 09:25:19;;;;;;;4.75;1.98;;;23.70;49.10;;;;;;4914298;29;20036;-78
2022/08/10 09:27:54;;;;;;;2.15;1.88;;;23.70;48.60;;;;;;4908357;29;20047;-77
2022/08/10 09:31:01;;;;;;;2.95;1.90;;;23.70;47.30;;;;;;4914188;29;20476;-79
2022/08/10 09:34:06;;;;;;;1.70;1.60;;;23.70;48.90;;;;;;4915555;29;20036;-78
2022/08/10 09:36:53;;;;;;;3.22;2.00;;;23.60;46.40;;;;;;4912842;29;20118;-78
2022/08/10 09:39:40;;;;;;;2.88;1.80;;;23.70;49.30;;;;;;4911715;29;20040;-78
2022/08/10 09:42:15;;;;;;;1.90;1.80;;;24.00;46.70;;;;;;4918701;29;20046;-78
2022/08/10 09:44:42;;;;;;;2.00;1.80;;;24.20;46.70;;;;;;4914840;29;20036;-78
2022/08/10 09:47:41;;;;;;;2.88;2.40;;;24.20;46.30;;;;;;4914918;29;20036;-78
2022/08/10 09:50:25;;;;;;;1.92;1.60;;;24.30;45.70;;;;;;4912831;29;20383;-78
2022/08/10 09:53:26;;;;;;;3.28;1.90;;;24.50;46.80;;;;;;4911564;29;20036;-78
2022/08/10 09:56:09;;;;;;;1.60;1.50;;;24.20;46.70;;;;;;4915612;29;20032;-79
2022/08/10 09:58:44;;;;;;;2.15;1.60;;;24.00;44.20;;;;;;4912850;29;20037;-79
2022/08/10 10:01:19;;;;;;;2.17;1.98;;;23.90;46.20;;;;;;4915123;29;20076;-79
2022/08/10 10:04:03;;;;;;;2.25;1.85;;;24.00;46.90;;;;;;4914457;29;20119;-77
2022/08/10 10:06:39;;;;;;;2.45;2.00;;;24.00;47.50;;;;;;4912700;29;20140;-79
2022/08/10 10:09:33;;;;;;;1.80;1.70;;;24.30;46.20;;;;;;4913719;29;20029;-76
2022/08/10 10:12:10;;;;;;;5.05;1.90;;;24.30;44.90;;;;;;4911268;29;20040;-78
2022/08/10 10:17:44;;;;;;;4.18;2.20;;;24.20;45.40;;;;;;4914726;29;20038;-78
2022/08/10 10:20:31;;;;;;;2.00;1.80;;;23.80;45.60;;;;;;4912933;29;20439;-78
2022/08/10 10:23:15;;;;;;;3.20;1.67;;;23.70;49.60;;;;;;4914798;29;20036;-78
2022/08/10 10:25:55;;;;;;;2.42;2.17;;;23.80;46.80;;;;;;4915572;29;20036;-78
2022/08/10 10:28:41;;;;;;;1.80;1.70;;;24.10;48.30;;;;;;4913930;29;20040;-78
2022/08/10 10:31:20;;;;;;;4.22;2.20;;;24.30;46.10;;;;;;4914691;29;20074;-78
2022/08/10 10:34:01;;;;;;;3.03;1.60;;;24.10;47.30;;;;;;4915462;29;20111;-77
2022/08/10 10:36:29;;;;;;;2.10;1.77;;;24.30;44.20;;;;;;4918123;29;20036;-78
2022/08/10 10:38:58;;;;;;;2.70;2.15;;;24.50;42.20;;;;;;4917480;29;20078;-78
2022/08/10 10:41:51;;;;;;;2.47;1.70;;;24.40;42.60;;;;;;4919270;29;20098;-76
2022/08/10 10:44:45;;;;;;;2.72;1.90;;;24.10;42.10;;;;;;4915754;29;20040;-78
2022/08/10 10:47:31;;;;;;;4.07;1.73;;;24.20;43.20;;;;;;4915914;29;20051;-78
2022/08/10 10:50:04;;;;;;;1.83;1.65;;;24.20;42.00;;;;;;4918139;29;20391;-77
2022/08/10 10:52:58;;;;;;;2.40;1.63;;;24.40;40.80;;;;;;4916823;29;20036;-78
2022/08/10 10:55:48;;;;;;;2.25;1.40;;;24.60;39.60;;;;;;4917364;29;20028;-78
2022/08/10 10:58:32;;;;;;;3.10;1.52;;;24.70;38.00;;;;;;4906602;29;20311;-78
2022/08/10 11:01:19;;;;;;;61.85;4.90;;;24.70;40.30;;;;;;4916077;29;20044;-77
2022/08/10 11:04:14;;;;;;;4.43;1.70;;;25.00;42.20;;;;;;4916577;29;20435;-78
2022/08/10 11:07:09;;;;;;;2.88;1.63;;;25.10;38.80;;;;;;4913717;29;20040;-78
2022/08/10 11:09:51;;;;;;;2.17;1.50;;;25.10;37.80;;;;;;4897322;29;20488;-78
2022/08/10 11:12:16;;;;;;;1.58;1.48;;;25.10;39.50;;;;;;4891352;29;20548;-77
2022/08/10 11:15:03;;;;;;;2.75;1.52;;;25.20;39.60;;;;;;4897952;29;20037;-78
2022/08/10 11:17:37;;;;;;;3.63;1.60;;;25.10;42.00;;;;;;4898083;29;20092;-77
2022/08/10 11:20:24;;;;;;;1.95;1.45;;;24.70;43.10;;;;;;4897470;29;20711;-77
2022/08/10 11:23:02;;;;;;;2.25;1.20;;;24.80;41.60;;;;;;4898866;29;20506;-78
2022/08/10 11:25:35;;;;;;;1.80;1.30;;;24.90;37.40;;;;;;4892646;29;20077;-77
2022/08/10 11:28:19;;;;;;;1.50;1.40;;;24.90;40.40;;;;;;4897866;29;20035;-78
2022/08/10 11:30:54;;;;;;;2.33;1.70;;;24.90;43.50;;;;;;4897809;29;20049;-79
2022/08/10 11:33:36;;;;;;;4.15;1.40;;;24.90;42.90;;;;;;4896946;29;20480;-78
2022/08/10 11:36:07;;;;;;;2.38;1.40;;;24.90;39.40;;;;;;4904109;29;20059;-78
2022/08/10 11:38:56;;;;;;;3.08;1.60;;;25.00;40.10;;;;;;4897341;29;20489;-77
2022/08/10 11:41:28;;;;;;;1.33;1.23;;;25.00;39.80;;;;;;4904074;29;20041;-78
2022/08/10 11:44:06;;;;;;;4.53;1.50;;;25.10;39.30;;;;;;4912817;29;20426;-78
2022/08/10 11:46:35;;;;;;;1.50;1.40;;;25.10;39.50;;;;;;4895701;29;20039;-78
2022/08/10 11:49:25;;;;;;;1.65;1.40;;;25.20;39.20;;;;;;4903367;29;20047;-78
2022/08/10 11:51:58;;;;;;;3.03;2.08;;;25.20;39.20;;;;;;4899509;29;20064;-79
2022/08/10 11:54:44;;;;;;;2.85;1.70;;;25.20;39.80;;;;;;4898378;29;20035;-78
2022/08/10 11:57:11;;;;;;;1.20;1.05;;;25.40;39.20;;;;;;4896543;29;20020;-78
2022/08/10 11:59:57;;;;;;;2.08;1.30;;;25.30;36.10;;;;;;4905274;29;20032;-78
2022/08/10 12:02:28;;;;;;;1.40;1.20;;;25.20;35.20;;;;;;4897559;29;20507;-77
2022/08/10 12:05:14;;;;;;;1.50;1.40;;;25.30;35.50;;;;;;4897161;29;20036;-77
2022/08/10 12:07:42;;;;;;;2.33;1.43;;;25.30;35.80;;;;;;4898177;29;20359;-77
2022/08/10 12:10:09;;;;;;;3.60;1.40;;;25.40;37.20;;;;;;4899448;29;20045;-77
2022/08/10 12:12:45;;;;;;;1.58;1.45;;;25.50;37.50;;;;;;4900599;29;20391;-77
2022/08/10 12:15:37;;;;;;;1.38;1.20;;;25.30;36.90;;;;;;4897900;29;20033;-78
2022/08/10 12:18:12;;;;;;;1.80;1.10;;;25.30;37.40;;;;;;4896175;29;20037;-77
2022/08/10 12:20:42;;;;;;;1.75;1.30;;;25.50;37.80;;;;;;4897320;29;20032;-77
2022/08/10 12:23:31;;;;;;;1.45;1.33;;;25.60;36.10;;;;;;4897561;29;20134;-77
2022/08/10 12:26:11;;;;;;;2.83;1.50;;;25.60;39.40;;;;;;4898859;29;20151;-78
2022/08/10 12:28:45;;;;;;;3.00;1.45;;;25.50;39.30;;;;;;4894909;29;20028;-78
2022/08/10 12:31:14;;;;;;;3.58;1.50;;;25.70;37.70;;;;;;4896557;29;20423;-78
2022/08/10 12:33:48;;;;;;;1.48;1.38;;;25.90;34.90;;;;;;4898288;29;20039;-77
2022/08/10 12:36:27;;;;;;;1.90;1.30;;;25.60;34.20;;;;;;4898547;29;20064;-78
2022/08/10 12:39:05;;;;;;;2.50;1.33;;;25.40;34.80;;;;;;4899965;29;20124;-77
2022/08/10 12:41:38;;;;;;;1.58;1.48;;;25.50;36.80;;;;;;4897285;29;20448;-78
2022/08/10 12:44:43;;;;;;;1.50;1.40;;;25.50;38.10;;;;;;4890939;29;20552;-77
2022/08/10 12:47:35;;;;;;;1.50;1.40;;;25.50;38.00;;;;;;4858677;29;20541;-77
2022/08/10 12:50:20;;;;;;;2.45;1.40;;;25.40;39.30;;;;;;4904119;29;20395;-77
2022/08/10 12:53:13;;;;;;;2.67;1.55;;;25.70;38.50;;;;;;4896950;29;20036;-77
2022/08/10 12:55:40;;;;;;;2.85;1.48;;;25.90;36.50;;;;;;4899634;29;20094;-77
2022/08/10 12:58:12;;;;;;;1.50;1.40;;;25.60;37.90;;;;;;4897414;29;20104;-78
2022/08/10 13:00:38;;;;;;;2.25;1.30;;;25.60;37.60;;;;;;4895480;29;20048;-77
2022/08/10 13:03:06;;;;;;;1.42;1.30;;;25.60;36.70;;;;;;4897376;29;20025;-77
2022/08/10 13:05:33;;;;;;;1.35;1.25;;;25.50;35.70;;;;;;4903167;29;20048;-77
2022/08/10 13:10:59;;;;;;;1.55;1.33;;;25.60;36.30;;;;;;4915198;29;20506;-79
2022/08/10 13:13:34;;;;;;;1.40;1.30;;;25.60;33.70;;;;;;4914316;29;20043;-79
2022/08/10 13:16:01;;;;;;;1.92;1.20;;;25.40;35.00;;;;;;4910671;29;20032;-79
2022/08/10 13:18:32;;;;;;;2.08;1.20;;;25.70;34.80;;;;;;4917535;29;20460;-79
2022/08/10 13:21:06;;;;;;;1.35;1.10;;;25.60;32.70;;;;;;4913564;29;20092;-79
2022/08/10 13:23:41;;;;;;;1.98;1.30;;;25.80;33.00;;;;;;4915841;29;20526;-79
2022/08/10 13:26:13;;;;;;;1.50;1.10;;;25.70;33.10;;;;;;4919648;29;20447;-79
2022/08/10 13:28:54;;;;;;;2.10;1.23;;;25.50;33.30;;;;;;4911379;29;21003;-78